Time;durP1;ratioP1;P1;durP2;ratioP2;P2;SDS_P1;SDS_P2;PMS_P1;PMS_P2;Temp;Humidity;BMP_temperature;BMP_pressure;BME280_temperature;BME280_humidity;BME280_pressure;Samples;Min_cycle;Max_cycle;Signal;HPM_P1;HPM_P2
2022/11/06 00:00:28;;;;;;;5.00;3.73;;;;;;;;;;5034355;28;20436;-35
2022/11/06 00:02:57;;;;;;;7.87;3.90;;;;;;;;;;5035009;28;21555;-35
2022/11/06 00:08:08;;;;;;;6.53;4.10;;;;;;;;;;5034915;28;20758;-36
2022/11/06 00:10:34;;;;;;;6.10;3.60;;;;;;;;;;5030511;28;20425;-35
2022/11/06 00:13:00;;;;;;;5.37;3.70;;;;;;;;;;5033723;28;20193;-35
2022/11/06 00:15:26;;;;;;;6.03;3.67;;;;;;;;;;5033689;28;20429;-36
2022/11/06 00:17:52;;;;;;;4.60;3.50;;;;;;;;;;5031519;28;20436;-36
2022/11/06 00:20:19;;;;;;;6.47;3.80;;;;;;;;;;5030961;28;20413;-37
2022/11/06 00:22:45;;;;;;;9.93;4.43;;;;;;;;;;5033457;28;20440;-35
2022/11/06 00:25:11;;;;;;;6.00;4.20;;;;;;;;;;5035717;28;20630;-35
2022/11/06 00:27:38;;;;;;;5.53;3.83;;;;;;;;;;5034585;28;20421;-36
2022/11/06 00:30:05;;;;;;;5.73;3.93;;;;;;;;;;5032749;28;22738;-35
2022/11/06 00:32:31;;;;;;;5.57;4.20;;;;;;;;;;5033917;28;20429;-35
2022/11/06 00:34:57;;;;;;;5.37;3.60;;;;;;;;;;5033243;28;20424;-35
2022/11/06 00:37:23;;;;;;;4.93;3.40;;;;;;;;;;5031762;28;20382;-35
2022/11/06 00:39:49;;;;;;;5.17;3.97;;;;;;;;;;5028935;28;20296;-35
2022/11/06 00:42:15;;;;;;;7.03;3.83;;;;;;;;;;5031306;28;20470;-35
2022/11/06 00:44:42;;;;;;;9.40;4.77;;;;;;;;;;5033371;28;20638;-35
2022/11/06 00:47:08;;;;;;;5.20;3.83;;;;;;;;;;5029968;28;20888;-36
2022/11/06 00:49:34;;;;;;;5.43;3.93;;;;;;;;;;5031445;28;20905;-36
2022/11/06 00:52:00;;;;;;;4.97;3.60;;;;;;;;;;5033062;28;20909;-35
2022/11/06 00:54:26;;;;;;;5.83;3.93;;;;;;;;;;5033024;28;20591;-35
2022/11/06 00:56:52;;;;;;;4.83;3.70;;;;;;;;;;5030915;28;20459;-36
2022/11/06 00:59:18;;;;;;;7.17;4.30;;;;;;;;;;5029829;28;20547;-35
2022/11/06 01:01:45;;;;;;;7.00;4.50;;;;;;;;;;5034696;28;20433;-35
2022/11/06 01:04:18;;;;;;;6.13;4.23;;;;;;;;;;5031322;28;20460;-35
2022/11/06 01:06:46;;;;;;;5.53;4.17;;;;;;;;;;5029880;28;20457;-35
2022/11/06 01:09:14;;;;;;;6.30;3.83;;;;;;;;;;5029982;28;21263;-35
2022/11/06 01:11:41;;;;;;;5.57;3.90;;;;;;;;;;5033852;28;20941;-35
2022/11/06 01:14:08;;;;;;;4.20;3.23;;;;;;;;;;5034646;28;20476;-35
2022/11/06 01:16:34;;;;;;;6.20;3.70;;;;;;;;;;5033039;28;20432;-35
2022/11/06 01:19:00;;;;;;;5.37;4.00;;;;;;;;;;5031992;28;20592;-35
2022/11/06 01:21:33;;;;;;;5.23;3.70;;;;;;;;;;5032571;28;20782;-35
2022/11/06 01:24:01;;;;;;;6.93;3.60;;;;;;;;;;5034098;28;20872;-35
2022/11/06 01:26:27;;;;;;;6.53;3.63;;;;;;;;;;5031069;28;20473;-36
2022/11/06 01:28:54;;;;;;;5.97;3.30;;;;;;;;;;5029032;28;20887;-35
2022/11/06 01:31:21;;;;;;;6.83;3.70;;;;;;;;;;5030160;28;20458;-35
2022/11/06 01:33:47;;;;;;;5.30;3.90;;;;;;;;;;5033379;28;20574;-35
2022/11/06 01:36:14;;;;;;;4.70;3.60;;;;;;;;;;5030391;28;21485;-35
2022/11/06 01:38:44;;;;;;;5.83;3.30;;;;;;;;;;5027857;28;20425;-35
2022/11/06 01:41:15;;;;;;;6.37;3.67;;;;;;;;;;5030286;28;20672;-35
2022/11/06 01:43:44;;;;;;;5.37;3.37;;;;;;;;;;5029181;28;20434;-35
2022/11/06 01:46:10;;;;;;;4.90;3.37;;;;;;;;;;5031273;28;20543;-35
2022/11/06 01:48:38;;;;;;;4.80;3.13;;;;;;;;;;5027809;28;20559;-35
2022/11/06 01:51:04;;;;;;;5.60;3.47;;;;;;;;;;5032131;28;20434;-35
2022/11/06 01:53:31;;;;;;;4.60;3.27;;;;;;;;;;5031807;28;20422;-35
2022/11/06 01:55:59;;;;;;;5.80;3.40;;;;;;;;;;5032786;28;20435;-36
2022/11/06 01:58:27;;;;;;;4.70;3.23;;;;;;;;;;5028943;28;20424;-35
2022/11/06 02:00:53;;;;;;;6.13;3.53;;;;;;;;;;5027689;28;20426;-35
2022/11/06 02:03:20;;;;;;;5.17;3.50;;;;;;;;;;5032417;28;20431;-35
2022/11/06 02:05:46;;;;;;;5.80;3.10;;;;;;;;;;5029860;28;20456;-35
2022/11/06 02:08:13;;;;;;;5.97;3.20;;;;;;;;;;5030023;28;21640;-35
2022/11/06 02:10:40;;;;;;;4.63;2.83;;;;;;;;;;5031729;28;20690;-35
2022/11/06 02:13:29;;;;;;;4.17;3.40;;;;;;;;;;5028777;28;20452;-35
2022/11/06 02:16:14;;;;;;;3.67;3.27;;;;;;;;;;5010776;28;20434;-35
2022/11/06 02:19:03;;;;;;;6.37;3.10;;;;;;;;;;5027745;28;21769;-35
2022/11/06 02:21:44;;;;;;;5.23;3.20;;;;;;;;;;4997054;28;20444;-35
2022/11/06 02:24:19;;;;;;;3.03;2.67;;;;;;;;;;5027881;28;20531;-35
2022/11/06 02:26:52;;;;;;;6.77;3.10;;;;;;;;;;5032742;28;20899;-35
2022/11/06 02:29:20;;;;;;;5.97;2.80;;;;;;;;;;5029045;28;21349;-35
2022/11/06 02:31:47;;;;;;;6.37;3.03;;;;;;;;;;5031221;28;20558;-35
2022/11/06 02:34:15;;;;;;;4.00;2.97;;;;;;;;;;5024468;28;21910;-35
2022/11/06 02:36:47;;;;;;;5.80;2.90;;;;;;;;;;5025410;28;21036;-35
2022/11/06 02:39:15;;;;;;;3.27;2.50;;;;;;;;;;5028575;28;21087;-35
2022/11/06 02:41:44;;;;;;;3.47;2.73;;;;;;;;;;5028443;28;20432;-35
2022/11/06 02:44:12;;;;;;;4.20;2.70;;;;;;;;;;5025388;28;21267;-35
2022/11/06 02:46:47;;;;;;;4.53;2.70;;;;;;;;;;5027018;28;20547;-35
2022/11/06 02:49:16;;;;;;;3.50;2.90;;;;;;;;;;5028219;28;20788;-35
2022/11/06 02:51:48;;;;;;;2.67;2.47;;;;;;;;;;5015729;28;20453;-35
2022/11/06 02:54:15;;;;;;;4.80;2.87;;;;;;;;;;5020356;28;20421;-35
2022/11/06 02:56:44;;;;;;;3.53;2.53;;;;;;;;;;5030786;28;20456;-35
2022/11/06 02:59:12;;;;;;;4.13;3.03;;;;;;;;;;5030863;28;20425;-36
2022/11/06 03:01:44;;;;;;;4.97;3.00;;;;;;;;;;5025642;28;21228;-35
2022/11/06 03:04:15;;;;;;;3.67;2.70;;;;;;;;;;5025861;28;20950;-35
2022/11/06 03:07:04;;;;;;;3.83;2.63;;;;;;;;;;5031792;28;20469;-35
2022/11/06 03:09:32;;;;;;;4.03;2.67;;;;;;;;;;5029343;28;20524;-35
2022/11/06 03:12:04;;;;;;;4.17;2.40;;;;;;;;;;5023149;28;20476;-35
2022/11/06 03:15:00;;;;;;;3.40;2.73;;;;;;;;;;5022600;28;20937;-35
2022/11/06 03:17:46;;;;;;;4.20;2.63;;;;;;;;;;5008137;28;20433;-35
2022/11/06 03:20:27;;;;;;;2.67;2.40;;;;;;;;;;5010634;28;20985;-35
2022/11/06 03:22:56;;;;;;;2.93;2.30;;;;;;;;;;5024926;28;20429;-35
2022/11/06 03:25:29;;;;;;;4.30;2.70;;;;;;;;;;5028411;28;20905;-35
2022/11/06 03:27:55;;;;;;;3.37;2.43;;;;;;;;;;5025728;28;20425;-36
2022/11/06 03:30:21;;;;;;;9.23;2.70;;;;;;;;;;5027931;28;20429;-35
2022/11/06 03:32:58;;;;;;;4.20;2.70;;;;;;;;;;5029512;28;20484;-35
2022/11/06 03:35:27;;;;;;;5.93;3.17;;;;;;;;;;5029142;28;21003;-35
2022/11/06 03:37:59;;;;;;;4.67;3.53;;;;;;;;;;5024604;28;20420;-34
2022/11/06 03:40:27;;;;;;;5.20;3.30;;;;;;;;;;5034294;28;20425;-35
2022/11/06 03:42:55;;;;;;;5.20;3.30;;;;;;;;;;5033041;28;21021;-35
2022/11/06 03:45:23;;;;;;;4.17;3.03;;;;;;;;;;5030836;28;21770;-35
2022/11/06 03:47:55;;;;;;;3.13;2.50;;;;;;;;;;5032000;28;20491;-34
2022/11/06 03:50:30;;;;;;;4.03;2.70;;;;;;;;;;5028231;28;20601;-35
2022/11/06 03:53:09;;;;;;;6.10;2.50;;;;;;;;;;5028868;28;21290;-35
2022/11/06 03:55:41;;;;;;;3.70;2.80;;;;;;;;;;5031653;28;20422;-35
2022/11/06 03:58:10;;;;;;;3.13;2.73;;;;;;;;;;5031751;28;20425;-35
2022/11/06 04:00:39;;;;;;;4.83;2.90;;;;;;;;;;5032651;28;20495;-35
2022/11/06 04:03:07;;;;;;;6.07;3.17;;;;;;;;;;5029854;28;20778;-35
2022/11/06 04:06:00;;;;;;;5.03;3.20;;;;;;;;;;5030308;28;20469;-35
2022/11/06 04:14:00;;;;;;;4.63;3.30;;;;;;;;;;5031782;28;20919;-36
2022/11/06 04:16:30;;;;;;;3.90;3.10;;;;;;;;;;5030442;28;21043;-35
2022/11/06 04:18:57;;;;;;;6.33;3.70;;;;;;;;;;5029578;28;20714;-36
2022/11/06 04:21:41;;;;;;;4.83;3.50;;;;;;;;;;5030148;28;20861;-35
2022/11/06 04:27:07;;;;;;;6.87;3.97;;;;;;;;;;5031819;28;20484;-36
2022/11/06 04:29:33;;;;;;;4.00;3.30;;;;;;;;;;5032272;28;20416;-35
2022/11/06 04:32:07;;;;;;;5.20;3.47;;;;;;;;;;5029746;28;20798;-36
2022/11/06 04:34:42;;;;;;;7.43;3.60;;;;;;;;;;5029033;28;20515;-35
2022/11/06 04:37:23;;;;;;;5.83;3.70;;;;;;;;;;5027900;28;20529;-36
2022/11/06 04:39:59;;;;;;;4.57;3.70;;;;;;;;;;5030273;28;20432;-36
2022/11/06 04:42:36;;;;;;;5.60;4.00;;;;;;;;;;5029146;28;20558;-36
2022/11/06 04:45:04;;;;;;;4.17;3.20;;;;;;;;;;5025874;28;20816;-36
2022/11/06 04:47:31;;;;;;;6.17;3.73;;;;;;;;;;5030694;28;20430;-36
2022/11/06 04:49:59;;;;;;;4.87;3.47;;;;;;;;;;5012779;28;20433;-36
2022/11/06 04:52:26;;;;;;;6.30;3.33;;;;;;;;;;5031013;28;20535;-36
2022/11/06 04:54:53;;;;;;;5.10;3.33;;;;;;;;;;5028321;28;20561;-36
2022/11/06 04:57:19;;;;;;;4.20;3.30;;;;;;;;;;5027513;28;20477;-36
2022/11/06 04:59:45;;;;;;;5.03;3.30;;;;;;;;;;5028930;28;20422;-36
2022/11/06 05:02:11;;;;;;;4.10;3.10;;;;;;;;;;5032721;28;21418;-36
2022/11/06 05:04:37;;;;;;;6.97;3.53;;;;;;;;;;5029963;28;20448;-34
2022/11/06 05:07:03;;;;;;;4.07;3.33;;;;;;;;;;5025327;28;20791;-36
2022/11/06 05:09:30;;;;;;;3.97;3.17;;;;;;;;;;5030447;28;20495;-36
2022/11/06 05:11:56;;;;;;;4.70;3.10;;;;;;;;;;5001763;28;20429;-36
2022/11/06 05:14:22;;;;;;;4.03;3.50;;;;;;;;;;5032997;28;20418;-36
2022/11/06 05:16:48;;;;;;;5.93;3.30;;;;;;;;;;5026429;28;20441;-36
2022/11/06 05:19:14;;;;;;;5.00;3.00;;;;;;;;;;5027336;28;20425;-36
2022/11/06 05:24:25;;;;;;;3.80;3.17;;;;;;;;;;5026177;28;20495;-36
2022/11/06 05:26:51;;;;;;;4.17;2.80;;;;;;;;;;5026855;28;20557;-35
2022/11/06 05:29:17;;;;;;;4.53;3.03;;;;;;;;;;5024039;28;20429;-36
2022/11/06 05:31:43;;;;;;;5.03;3.13;;;;;;;;;;5029566;28;20421;-36
2022/11/06 05:34:09;;;;;;;3.60;3.03;;;;;;;;;;5027001;28;20417;-36
2022/11/06 05:36:35;;;;;;;4.77;2.93;;;;;;;;;;5033321;28;20509;-36
2022/11/06 05:39:01;;;;;;;4.17;3.10;;;;;;;;;;5028951;28;20423;-36
2022/11/06 05:41:27;;;;;;;5.10;2.93;;;;;;;;;;5026671;28;20429;-36
2022/11/06 05:43:53;;;;;;;4.00;3.10;;;;;;;;;;5027725;28;21672;-36
2022/11/06 05:46:19;;;;;;;7.13;3.50;;;;;;;;;;5027423;28;21106;-36
2022/11/06 05:48:46;;;;;;;5.07;3.30;;;;;;;;;;5028116;28;20464;-36
2022/11/06 05:51:12;;;;;;;4.43;3.60;;;;;;;;;;5031904;28;20977;-36
2022/11/06 05:53:38;;;;;;;4.50;3.37;;;;;;;;;;5030715;28;20860;-36
2022/11/06 05:56:04;;;;;;;5.57;3.17;;;;;;;;;;5028124;28;20839;-36
2022/11/06 05:58:30;;;;;;;9.43;4.10;;;;;;;;;;5029066;28;20441;-36
2022/11/06 06:00:57;;;;;;;10.17;4.47;;;;;;;;;;5029302;28;20976;-35
2022/11/06 06:03:24;;;;;;;4.33;3.90;;;;;;;;;;5029437;28;20427;-36
2022/11/06 06:05:50;;;;;;;6.53;3.90;;;;;;;;;;5027313;28;20452;-36
2022/11/06 06:08:16;;;;;;;4.43;3.50;;;;;;;;;;5026954;28;20436;-36
2022/11/06 06:10:46;;;;;;;5.73;3.70;;;;;;;;;;5029336;28;21491;-36
2022/11/06 06:13:12;;;;;;;4.20;3.10;;;;;;;;;;5029683;28;21012;-35
2022/11/06 06:15:39;;;;;;;6.53;3.80;;;;;;;;;;5025510;28;21496;-36
2022/11/06 06:18:05;;;;;;;6.93;3.63;;;;;;;;;;5028820;28;20874;-37
2022/11/06 06:20:31;;;;;;;4.27;2.80;;;;;;;;;;5025388;28;20425;-36
2022/11/06 06:22:58;;;;;;;4.33;3.50;;;;;;;;;;5027235;28;20504;-36
2022/11/06 06:25:25;;;;;;;4.43;3.30;;;;;;;;;;5028902;28;20457;-35
2022/11/06 06:27:51;;;;;;;3.23;2.93;;;;;;;;;;5027831;28;20931;-36
2022/11/06 06:30:18;;;;;;;4.50;2.97;;;;;;;;;;5028034;28;20665;-36
2022/11/06 06:32:44;;;;;;;5.57;3.23;;;;;;;;;;5029275;28;20422;-36
2022/11/06 06:35:10;;;;;;;4.80;3.20;;;;;;;;;;5026700;28;20823;-36
2022/11/06 06:37:36;;;;;;;3.70;3.10;;;;;;;;;;5024660;28;20511;-36
2022/11/06 06:40:03;;;;;;;8.47;3.40;;;;;;;;;;5024083;28;20948;-36
2022/11/06 06:42:29;;;;;;;4.97;3.33;;;;;;;;;;5025741;28;20431;-36
2022/11/06 06:44:56;;;;;;;4.70;3.83;;;;;;;;;;5029238;28;20422;-36
2022/11/06 06:47:22;;;;;;;6.40;3.03;;;;;;;;;;5027074;28;20548;-36
2022/11/06 06:49:48;;;;;;;3.63;3.27;;;;;;;;;;5001941;28;20483;-36
2022/11/06 06:52:14;;;;;;;6.17;3.40;;;;;;;;;;5024027;28;20537;-36
2022/11/06 06:54:40;;;;;;;4.50;3.10;;;;;;;;;;5031325;28;20919;-36
2022/11/06 06:57:07;;;;;;;5.17;2.90;;;;;;;;;;5027996;28;20425;-36
2022/11/06 06:59:33;;;;;;;4.47;3.00;;;;;;;;;;5031290;28;20976;-36
2022/11/06 07:02:00;;;;;;;4.37;3.37;;;;;;;;;;5030293;28;20515;-36
2022/11/06 07:04:26;;;;;;;4.10;3.20;;;;;;;;;;5033782;28;20939;-36
2022/11/06 07:06:55;;;;;;;4.03;3.20;;;;;;;;;;5033058;28;20493;-36
2022/11/06 07:09:25;;;;;;;3.47;3.17;;;;;;;;;;5031712;28;20413;-36
2022/11/06 07:11:51;;;;;;;4.17;3.30;;;;;;;;;;5030549;28;20425;-36
2022/11/06 07:14:17;;;;;;;3.67;3.27;;;;;;;;;;5028740;28;20425;-36
2022/11/06 07:16:43;;;;;;;3.93;2.97;;;;;;;;;;5029029;28;21192;-36
2022/11/06 07:19:09;;;;;;;4.50;3.00;;;;;;;;;;5026648;28;20429;-36
2022/11/06 07:21:35;;;;;;;4.53;3.00;;;;;;;;;;5029387;28;20513;-36
2022/11/06 07:24:01;;;;;;;5.43;3.00;;;;;;;;;;5029905;28;20801;-36
2022/11/06 07:26:30;;;;;;;4.50;3.17;;;;;;;;;;5021426;28;20471;-36
2022/11/06 07:28:56;;;;;;;4.63;3.30;;;;;;;;;;5028488;28;20545;-35
2022/11/06 07:31:22;;;;;;;5.93;3.90;;;;;;;;;;5031604;28;21625;-36
2022/11/06 07:33:48;;;;;;;6.03;3.83;;;;;;;;;;5033420;28;20524;-36
2022/11/06 07:36:15;;;;;;;6.30;3.80;;;;;;;;;;5031680;28;20921;-36
2022/11/06 07:38:41;;;;;;;6.27;3.90;;;;;;;;;;5027877;28;20978;-34
2022/11/06 07:41:09;;;;;;;4.70;3.87;;;;;;;;;;5030780;28;20418;-36
2022/11/06 07:43:35;;;;;;;4.47;3.67;;;;;;;;;;5033318;28;20425;-37
2022/11/06 07:46:02;;;;;;;5.47;3.73;;;;;;;;;;5031430;28;20450;-37
2022/11/06 07:48:29;;;;;;;5.20;3.60;;;;;;;;;;5029841;28;21104;-36
2022/11/06 07:50:55;;;;;;;5.13;3.70;;;;;;;;;;5031443;28;20916;-36
2022/11/06 07:53:21;;;;;;;5.53;4.00;;;;;;;;;;5028381;28;20512;-36
2022/11/06 07:55:48;;;;;;;7.17;3.77;;;;;;;;;;5026560;28;20180;-37
2022/11/06 07:58:15;;;;;;;9.13;4.70;;;;;;;;;;5030196;28;20635;-37
2022/11/06 08:00:45;;;;;;;5.70;4.43;;;;;;;;;;5029652;28;20168;-37
2022/11/06 08:03:11;;;;;;;6.17;4.53;;;;;;;;;;5024039;28;20505;-36
2022/11/06 08:05:37;;;;;;;5.80;4.17;;;;;;;;;;5026835;28;20918;-36
2022/11/06 08:08:03;;;;;;;8.80;4.97;;;;;;;;;;5027822;28;20230;-35
2022/11/06 08:10:29;;;;;;;6.53;4.47;;;;;;;;;;5032538;28;20180;-34
2022/11/06 08:12:55;;;;;;;7.03;4.70;;;;;;;;;;5029098;28;20178;-34
2022/11/06 08:15:21;;;;;;;6.47;4.40;;;;;;;;;;5027540;28;20183;-34
2022/11/06 08:17:48;;;;;;;7.23;4.10;;;;;;;;;;5025892;28;20179;-35
2022/11/06 08:20:14;;;;;;;6.90;4.67;;;;;;;;;;5027933;28;20261;-35
2022/11/06 08:22:40;;;;;;;6.23;4.43;;;;;;;;;;5030904;28;20187;-35
2022/11/06 08:25:06;;;;;;;6.10;4.80;;;;;;;;;;5030158;28;20198;-35
2022/11/06 08:27:32;;;;;;;9.23;5.13;;;;;;;;;;5027943;28;20777;-37
2022/11/06 08:29:58;;;;;;;7.90;5.17;;;;;;;;;;5030206;28;20164;-36
2022/11/06 08:32:24;;;;;;;7.50;5.20;;;;;;;;;;5031263;28;20295;-36
2022/11/06 08:34:50;;;;;;;5.43;4.10;;;;;;;;;;5028568;28;20605;-36
2022/11/06 08:37:17;;;;;;;7.30;4.70;;;;;;;;;;5023392;28;20175;-36
2022/11/06 08:39:43;;;;;;;7.47;4.47;;;;;;;;;;5026362;28;20557;-36
2022/11/06 08:42:09;;;;;;;7.50;4.63;;;;;;;;;;5026164;28;20666;-36
2022/11/06 08:44:35;;;;;;;5.50;4.67;;;;;;;;;;5026350;28;20726;-36
2022/11/06 08:47:01;;;;;;;6.37;4.13;;;;;;;;;;5031628;28;20217;-36
2022/11/06 08:49:28;;;;;;;5.83;3.93;;;;;;;;;;5031358;28;20928;-39
2022/11/06 08:51:54;;;;;;;9.47;4.67;;;;;;;;;;5029531;28;20176;-36
2022/11/06 08:54:20;;;;;;;5.10;4.30;;;;;;;;;;5025766;28;20745;-36
2022/11/06 08:56:46;;;;;;;5.83;3.80;;;;;;;;;;5028672;28;20184;-36
2022/11/06 08:59:12;;;;;;;4.80;3.57;;;;;;;;;;5029200;28;20175;-35
2022/11/06 09:01:38;;;;;;;4.87;4.03;;;;;;;;;;5032668;28;20731;-36
2022/11/06 09:04:04;;;;;;;5.53;4.23;;;;;;;;;;5030216;28;20527;-35
2022/11/06 09:06:31;;;;;;;5.47;4.33;;;;;;;;;;5027844;28;20782;-35
2022/11/06 09:08:57;;;;;;;5.57;4.40;;;;;;;;;;5027778;28;21518;-36
2022/11/06 09:11:23;;;;;;;5.77;4.50;;;;;;;;;;5012191;28;20650;-36
2022/11/06 09:13:49;;;;;;;6.30;4.60;;;;;;;;;;5011607;28;20192;-36
2022/11/06 09:16:15;;;;;;;6.10;3.90;;;;;;;;;;5030153;28;20718;-36
2022/11/06 09:18:42;;;;;;;6.43;4.40;;;;;;;;;;5031434;28;20179;-37
2022/11/06 09:21:08;;;;;;;7.67;4.67;;;;;;;;;;5031837;28;20194;-37
2022/11/06 09:23:34;;;;;;;7.57;4.77;;;;;;;;;;5030025;28;20230;-37
2022/11/06 09:26:00;;;;;;;6.73;4.67;;;;;;;;;;5031326;28;20384;-37
2022/11/06 09:28:26;;;;;;;6.57;4.40;;;;;;;;;;5024444;28;20298;-37
2022/11/06 09:30:54;;;;;;;7.00;4.23;;;;;;;;;;5030817;28;20241;-35
2022/11/06 09:33:20;;;;;;;7.17;4.70;;;;;;;;;;5026825;28;20172;-35
2022/11/06 09:35:46;;;;;;;6.60;4.13;;;;;;;;;;5032320;28;20606;-36
2022/11/06 09:38:14;;;;;;;7.80;4.40;;;;;;;;;;5035092;28;20265;-35
2022/11/06 09:40:42;;;;;;;4.47;4.00;;;;;;;;;;5032419;28;20180;-35
2022/11/06 09:43:21;;;;;;;6.77;4.00;;;;;;;;;;5032693;28;20209;-35
2022/11/06 09:45:49;;;;;;;6.50;4.10;;;;;;;;;;5024774;28;20234;-36
2022/11/06 09:48:50;;;;;;;5.67;3.60;;;;;;;;;;5030891;28;20167;-36
2022/11/06 09:51:35;;;;;;;5.57;4.10;;;;;;;;;;4976591;28;20173;-37
2022/11/06 09:54:05;;;;;;;5.03;4.10;;;;;;;;;;5014425;28;20186;-36
2022/11/06 09:56:33;;;;;;;4.67;3.83;;;;;;;;;;5028248;28;20180;-37
2022/11/06 09:59:01;;;;;;;6.13;3.83;;;;;;;;;;5027558;28;20460;-37
2022/11/06 10:02:02;;;;;;;15.97;4.83;;;;;;;;;;5026130;28;20286;-37
2022/11/06 10:04:34;;;;;;;6.27;4.10;;;;;;;;;;5009281;28;21136;-37
2022/11/06 10:07:00;;;;;;;5.93;3.50;;;;;;;;;;5027747;28;20387;-36
2022/11/06 10:09:26;;;;;;;5.57;3.53;;;;;;;;;;5032020;28;20706;-37
2022/11/06 10:11:52;;;;;;;8.00;4.13;;;;;;;;;;5030818;28;20202;-37
2022/11/06 10:14:50;;;;;;;5.27;4.00;;;;;;;;;;5026076;28;20168;-37
2022/11/06 10:17:26;;;;;;;6.07;4.03;;;;;;;;;;4988030;28;20188;-37
2022/11/06 10:20:24;;;;;;;5.90;4.10;;;;;;;;;;5029173;28;20563;-37
2022/11/06 10:23:11;;;;;;;6.47;4.43;;;;;;;;;;4994914;28;20183;-36
2022/11/06 10:25:42;;;;;;;6.93;4.63;;;;;;;;;;5029927;28;20747;-37
2022/11/06 10:28:21;;;;;;;6.43;4.10;;;;;;;;;;5025192;28;20764;-37
2022/11/06 10:30:50;;;;;;;6.27;4.53;;;;;;;;;;5021704;28;20286;-37
2022/11/06 10:33:22;;;;;;;6.43;4.57;;;;;;;;;;5004687;28;20241;-36
2022/11/06 10:36:02;;;;;;;5.67;4.40;;;;;;;;;;5028506;28;20473;-37
2022/11/06 10:38:32;;;;;;;5.03;3.90;;;;;;;;;;5032801;28;20167;-36
2022/11/06 10:40:59;;;;;;;6.00;4.47;;;;;;;;;;5029104;28;20179;-37
2022/11/06 10:43:33;;;;;;;6.87;4.37;;;;;;;;;;5030884;28;20189;-37
2022/11/06 10:46:19;;;;;;;7.07;4.30;;;;;;;;;;5031384;28;20190;-36
2022/11/06 10:48:51;;;;;;;7.30;4.30;;;;;;;;;;5032693;28;20176;-36
2022/11/06 10:51:17;;;;;;;10.23;4.50;;;;;;;;;;5029716;28;20175;-37
2022/11/06 10:54:01;;;;;;;8.53;4.37;;;;;;;;;;5028406;28;20448;-36
2022/11/06 10:56:46;;;;;;;6.93;4.47;;;;;;;;;;5027574;28;20186;-36
2022/11/06 10:59:12;;;;;;;7.30;4.50;;;;;;;;;;5032178;28;20530;-37
2022/11/06 11:01:39;;;;;;;5.80;4.23;;;;;;;;;;5034561;28;20226;-36
2022/11/06 11:04:05;;;;;;;7.80;4.60;;;;;;;;;;5016195;28;20180;-36
2022/11/06 11:06:31;;;;;;;6.90;4.10;;;;;;;;;;5029451;28;20270;-37
2022/11/06 11:08:57;;;;;;;6.80;4.30;;;;;;;;;;5031373;28;20287;-34
2022/11/06 11:11:28;;;;;;;8.70;4.50;;;;;;;;;;5035286;28;20444;-36
2022/11/06 11:14:00;;;;;;;6.33;3.97;;;;;;;;;;5035358;28;20636;-36
2022/11/06 11:16:32;;;;;;;6.23;4.00;;;;;;;;;;5032836;28;20241;-36
2022/11/06 11:19:14;;;;;;;6.83;4.23;;;;;;;;;;5032711;28;20191;-35
2022/11/06 11:21:52;;;;;;;4.87;3.63;;;;;;;;;;5034649;28;20195;-37
2022/11/06 11:24:18;;;;;;;6.17;3.77;;;;;;;;;;5032339;28;20167;-36
2022/11/06 11:26:48;;;;;;;5.57;4.07;;;;;;;;;;5029534;28;20226;-36
2022/11/06 11:29:15;;;;;;;4.97;3.70;;;;;;;;;;5027983;28;20825;-36
2022/11/06 11:31:44;;;;;;;5.23;3.70;;;;;;;;;;5034391;28;20172;-36
2022/11/06 11:34:19;;;;;;;6.90;4.20;;;;;;;;;;5035264;28;20217;-36
2022/11/06 11:36:50;;;;;;;5.33;4.13;;;;;;;;;;5035103;28;20899;-36
2022/11/06 11:39:17;;;;;;;7.67;4.10;;;;;;;;;;5030422;28;20183;-36
2022/11/06 11:41:43;;;;;;;6.70;3.57;;;;;;;;;;5031948;28;20797;-36
2022/11/06 11:44:12;;;;;;;7.07;3.60;;;;;;;;;;5032715;28;20222;-36
2022/11/06 11:46:45;;;;;;;5.43;3.70;;;;;;;;;;5031696;28;20846;-38
2022/11/06 11:49:25;;;;;;;6.07;3.60;;;;;;;;;;5031789;28;20168;-36
2022/11/06 11:51:52;;;;;;;6.50;3.40;;;;;;;;;;5030785;28;20168;-37
2022/11/06 11:54:20;;;;;;;4.27;3.30;;;;;;;;;;5032235;28;20656;-37
2022/11/06 11:56:52;;;;;;;5.37;3.33;;;;;;;;;;5031312;28;20179;-37
2022/11/06 11:59:20;;;;;;;6.57;3.20;;;;;;;;;;5034480;28;20175;-37
2022/11/06 12:01:47;;;;;;;5.10;3.23;;;;;;;;;;5037084;28;20423;-37
2022/11/06 12:04:13;;;;;;;4.90;3.40;;;;;;;;;;5027230;28;20175;-36
2022/11/06 12:06:49;;;;;;;5.67;3.47;;;;;;;;;;5028123;28;20214;-37
2022/11/06 12:09:15;;;;;;;5.43;3.30;;;;;;;;;;5033199;28;20184;-36
2022/11/06 12:11:42;;;;;;;5.63;3.53;;;;;;;;;;5036187;28;20442;-37
2022/11/06 12:14:18;;;;;;;6.27;3.50;;;;;;;;;;5012875;28;20780;-37
2022/11/06 12:16:45;;;;;;;4.20;3.00;;;;;;;;;;5032244;28;20193;-36
2022/11/06 12:19:12;;;;;;;5.20;3.10;;;;;;;;;;5030070;28;20214;-36
2022/11/06 12:21:39;;;;;;;6.07;3.30;;;;;;;;;;5031871;28;20172;-37
2022/11/06 12:24:25;;;;;;;4.43;3.40;;;;;;;;;;5033363;28;20169;-37
2022/11/06 12:26:54;;;;;;;4.83;3.47;;;;;;;;;;5030577;28;20891;-37
2022/11/06 12:29:23;;;;;;;5.10;3.07;;;;;;;;;;5029838;28;20268;-37
2022/11/06 12:31:59;;;;;;;5.83;3.20;;;;;;;;;;5032981;28;20180;-37
2022/11/06 12:34:25;;;;;;;5.33;3.57;;;;;;;;;;5032062;28;20220;-37
2022/11/06 12:37:20;;;;;;;4.70;3.10;;;;;;;;;;5033775;28;20293;-38
2022/11/06 12:39:49;;;;;;;5.00;3.40;;;;;;;;;;5026209;28;20188;-35
2022/11/06 12:42:16;;;;;;;6.13;3.30;;;;;;;;;;5030174;28;20231;-36
2022/11/06 12:44:42;;;;;;;4.40;3.10;;;;;;;;;;5029396;28;21031;-36
2022/11/06 12:47:11;;;;;;;5.87;3.23;;;;;;;;;;5026993;28;20682;-36
2022/11/06 12:49:56;;;;;;;4.20;3.03;;;;;;;;;;5030172;28;20557;-36
2022/11/06 12:52:40;;;;;;;5.47;3.20;;;;;;;;;;5031857;28;21229;-36
2022/11/06 12:55:14;;;;;;;5.13;2.93;;;;;;;;;;5034710;28;20179;-36
2022/11/06 12:57:59;;;;;;;3.83;2.57;;;;;;;;;;5033388;28;20174;-36
2022/11/06 13:00:28;;;;;;;3.53;2.53;;;;;;;;;;5032934;28;20183;-36
2022/11/06 13:02:54;;;;;;;4.53;2.80;;;;;;;;;;5031782;28;20507;-36
2022/11/06 13:05:23;;;;;;;3.97;3.23;;;;;;;;;;5030675;28;20248;-36
2022/11/06 13:07:52;;;;;;;6.67;3.07;;;;;;;;;;5028425;28;20303;-37
2022/11/06 13:10:22;;;;;;;3.67;2.80;;;;;;;;;;5029399;28;20673;-36
2022/11/06 13:13:07;;;;;;;6.37;3.17;;;;;;;;;;5031167;28;20172;-37
2022/11/06 13:15:53;;;;;;;5.77;3.07;;;;;;;;;;5032241;28;20645;-36
2022/11/06 13:18:38;;;;;;;6.40;3.40;;;;;;;;;;5033913;28;21001;-36
2022/11/06 13:21:05;;;;;;;6.50;3.40;;;;;;;;;;5031587;28;20175;-36
2022/11/06 13:23:34;;;;;;;4.67;3.40;;;;;;;;;;5027550;28;20643;-37
2022/11/06 13:26:12;;;;;;;7.20;3.40;;;;;;;;;;5030649;28;20199;-37
2022/11/06 13:28:45;;;;;;;8.50;3.77;;;;;;;;;;5033794;28;20278;-37
2022/11/06 13:31:13;;;;;;;6.03;2.87;;;;;;;;;;5032590;28;20197;-37
2022/11/06 13:33:42;;;;;;;5.60;2.93;;;;;;;;;;5016306;28;20387;-36
2022/11/06 13:36:08;;;;;;;4.47;2.37;;;;;;;;;;5025204;28;20452;-36
2022/11/06 13:38:37;;;;;;;4.30;2.43;;;;;;;;;;5032636;28;20479;-36
2022/11/06 13:41:19;;;;;;;5.53;2.47;;;;;;;;;;5034681;28;20175;-36
2022/11/06 13:43:48;;;;;;;3.57;2.20;;;;;;;;;;5032047;28;20182;-37
2022/11/06 13:46:19;;;;;;;3.23;2.10;;;;;;;;;;5030291;28;20463;-37
2022/11/06 13:48:54;;;;;;;3.93;2.10;;;;;;;;;;5029021;28;20182;-36
2022/11/06 13:51:20;;;;;;;3.23;2.27;;;;;;;;;;5031964;28;20293;-37
2022/11/06 13:53:52;;;;;;;3.27;2.30;;;;;;;;;;5034768;28;20175;-37
2022/11/06 13:56:37;;;;;;;4.23;2.30;;;;;;;;;;5030512;28;20170;-41
2022/11/06 13:59:09;;;;;;;3.77;2.47;;;;;;;;;;5028235;28;20179;-36
2022/11/06 14:01:54;;;;;;;3.47;2.13;;;;;;;;;;5029401;28;20208;-37
2022/11/06 14:04:39;;;;;;;3.07;2.07;;;;;;;;;;5032048;28;20203;-36
2022/11/06 14:07:05;;;;;;;2.87;1.90;;;;;;;;;;5034120;28;20195;-37
2022/11/06 14:09:33;;;;;;;3.07;2.13;;;;;;;;;;5032973;28;20175;-37
2022/11/06 14:12:02;;;;;;;2.67;1.97;;;;;;;;;;5032655;28;20258;-38
2022/11/06 14:14:29;;;;;;;4.97;2.10;;;;;;;;;;5011418;28;20180;-36
2022/11/06 14:17:12;;;;;;;5.60;2.70;;;;;;;;;;5027198;28;20824;-37
2022/11/06 14:19:39;;;;;;;3.57;2.10;;;;;;;;;;5033715;28;20781;-36
2022/11/06 14:22:08;;;;;;;3.73;2.30;;;;;;;;;;5033431;28;20357;-37
2022/11/06 14:24:35;;;;;;;3.47;2.20;;;;;;;;;;5012531;28;20349;-37
2022/11/06 14:27:05;;;;;;;3.83;2.40;;;;;;;;;;5017074;28;20224;-37
2022/11/06 14:29:31;;;;;;;3.50;2.17;;;;;;;;;;5028392;28;20344;-37
2022/11/06 14:31:58;;;;;;;3.57;2.23;;;;;;;;;;5025030;28;20300;-37
2022/11/06 14:34:28;;;;;;;4.47;2.20;;;;;;;;;;5033515;28;20193;-37
2022/11/06 14:36:54;;;;;;;4.27;2.57;;;;;;;;;;5029540;28;20813;-37
2022/11/06 14:39:40;;;;;;;4.30;2.30;;;;;;;;;;5029039;28;20738;-37
2022/11/06 14:42:06;;;;;;;5.37;2.70;;;;;;;;;;5033004;28;20525;-37
2022/11/06 14:44:34;;;;;;;3.50;2.50;;;;;;;;;;5037227;28;20686;-37
2022/11/06 14:47:02;;;;;;;4.10;2.43;;;;;;;;;;5032666;28;20935;-38
2022/11/06 14:49:34;;;;;;;4.50;2.47;;;;;;;;;;5031240;28;20653;-37
2022/11/06 14:52:09;;;;;;;4.50;2.30;;;;;;;;;;5028043;28;20272;-37
2022/11/06 14:54:36;;;;;;;3.50;2.23;;;;;;;;;;5029051;28;20214;-37
2022/11/06 14:57:03;;;;;;;4.47;2.33;;;;;;;;;;5033107;28;20172;-37
2022/11/06 14:59:32;;;;;;;4.50;2.30;;;;;;;;;;5030795;28;20179;-37
2022/11/06 15:02:08;;;;;;;4.43;2.43;;;;;;;;;;5029830;28;20180;-37
2022/11/06 15:04:34;;;;;;;2.60;2.00;;;;;;;;;;5022542;28;20267;-37
2022/11/06 15:07:08;;;;;;;3.97;2.27;;;;;;;;;;5009470;28;20230;-36
2022/11/06 15:09:45;;;;;;;5.50;2.30;;;;;;;;;;5028015;28;20207;-37
2022/11/06 15:12:11;;;;;;;5.23;2.40;;;;;;;;;;5028158;28;20293;-37